sensor_id;sensor_type;location;lat;lon;timestamp;P1;durP1;ratioP1;P2;durP2;ratioP2
22336;SDS011;14992;50.844;4.418;2022-08-04T00:00:38;10.05;;;3.17;;
22336;SDS011;14992;50.844;4.418;2022-08-04T00:03:12;8.68;;;2.60;;
22336;SDS011;14992;50.844;4.418;2022-08-04T00:05:51;11.23;;;2.92;;
22336;SDS011;14992;50.844;4.418;2022-08-04T00:08:29;10.13;;;3.03;;
22336;SDS011;14992;50.844;4.418;2022-08-04T00:11:05;12.73;;;2.92;;
22336;SDS011;14992;50.844;4.418;2022-08-04T00:13:48;12.60;;;2.70;;
22336;SDS011;14992;50.844;4.418;2022-08-04T00:16:29;11.90;;;3.13;;
22336;SDS011;14992;50.844;4.418;2022-08-04T00:19:04;6.80;;;2.42;;
22336;SDS011;14992;50.844;4.418;2022-08-04T00:21:37;10.70;;;3.38;;
22336;SDS011;14992;50.844;4.418;2022-08-04T00:24:08;9.07;;;2.88;;
22336;SDS011;14992;50.844;4.418;2022-08-04T00:26:38;10.55;;;2.83;;
22336;SDS011;14992;50.844;4.418;2022-08-04T00:29:09;12.38;;;2.85;;
22336;SDS011;14992;50.844;4.418;2022-08-04T00:31:38;11.45;;;2.92;;
22336;SDS011;14992;50.844;4.418;2022-08-04T00:34:23;10.57;;;3.10;;
22336;SDS011;14992;50.844;4.418;2022-08-04T00:36:53;9.20;;;3.40;;
22336;SDS011;14992;50.844;4.418;2022-08-04T00:39:23;12.60;;;3.47;;
22336;SDS011;14992;50.844;4.418;2022-08-04T00:41:58;11.60;;;3.25;;
22336;SDS011;14992;50.844;4.418;2022-08-04T00:44:58;12.20;;;2.85;;
22336;SDS011;14992;50.844;4.418;2022-08-04T00:47:38;11.70;;;3.45;;
22336;SDS011;14992;50.844;4.418;2022-08-04T00:50:17;8.40;;;3.10;;
22336;SDS011;14992;50.844;4.418;2022-08-04T00:52:55;8.45;;;3.00;;
22336;SDS011;14992;50.844;4.418;2022-08-04T00:55:40;12.20;;;3.13;;
22336;SDS011;14992;50.844;4.418;2022-08-04T00:58:28;11.68;;;3.55;;
22336;SDS011;14992;50.844;4.418;2022-08-04T01:01:06;13.80;;;3.10;;
22336;SDS011;14992;50.844;4.418;2022-08-04T01:03:48;12.40;;;3.20;;
22336;SDS011;14992;50.844;4.418;2022-08-04T01:06:21;9.63;;;3.15;;
22336;SDS011;14992;50.844;4.418;2022-08-04T01:09:00;12.57;;;3.17;;
22336;SDS011;14992;50.844;4.418;2022-08-04T01:14:46;12.00;;;3.67;;
22336;SDS011;14992;50.844;4.418;2022-08-04T01:17:32;10.27;;;3.30;;
22336;SDS011;14992;50.844;4.418;2022-08-04T01:20:08;9.55;;;3.28;;
22336;SDS011;14992;50.844;4.418;2022-08-04T01:26:05;13.05;;;3.63;;
22336;SDS011;14992;50.844;4.418;2022-08-04T01:29:21;8.75;;;3.10;;
22336;SDS011;14992;50.844;4.418;2022-08-04T01:32:11;15.48;;;3.40;;
22336;SDS011;14992;50.844;4.418;2022-08-04T01:34:58;10.07;;;4.03;;
22336;SDS011;14992;50.844;4.418;2022-08-04T01:37:33;9.10;;;3.65;;
22336;SDS011;14992;50.844;4.418;2022-08-04T01:40:14;16.15;;;3.70;;
22336;SDS011;14992;50.844;4.418;2022-08-04T01:42:43;11.40;;;3.85;;
22336;SDS011;14992;50.844;4.418;2022-08-04T01:45:13;14.02;;;3.72;;
22336;SDS011;14992;50.844;4.418;2022-08-04T01:47:48;16.60;;;3.80;;
22336;SDS011;14992;50.844;4.418;2022-08-04T01:50:18;17.90;;;4.28;;
22336;SDS011;14992;50.844;4.418;2022-08-04T01:52:49;12.18;;;4.03;;
22336;SDS011;14992;50.844;4.418;2022-08-04T01:55:20;11.98;;;3.63;;
22336;SDS011;14992;50.844;4.418;2022-08-04T01:58:09;15.13;;;3.70;;
22336;SDS011;14992;50.844;4.418;2022-08-04T02:00:40;14.13;;;4.15;;
22336;SDS011;14992;50.844;4.418;2022-08-04T02:03:22;13.05;;;3.85;;
22336;SDS011;14992;50.844;4.418;2022-08-04T02:06:14;11.90;;;4.20;;
22336;SDS011;14992;50.844;4.418;2022-08-04T02:08:50;12.48;;;3.75;;
22336;SDS011;14992;50.844;4.418;2022-08-04T02:11:28;11.23;;;3.95;;
22336;SDS011;14992;50.844;4.418;2022-08-04T02:13:57;13.77;;;4.15;;
22336;SDS011;14992;50.844;4.418;2022-08-04T02:16:37;15.00;;;4.40;;
22336;SDS011;14992;50.844;4.418;2022-08-04T02:19:20;13.70;;;4.43;;
22336;SDS011;14992;50.844;4.418;2022-08-04T02:21:56;13.68;;;4.50;;
22336;SDS011;14992;50.844;4.418;2022-08-04T02:24:29;11.20;;;3.88;;
22336;SDS011;14992;50.844;4.418;2022-08-04T02:27:00;10.52;;;4.07;;
22336;SDS011;14992;50.844;4.418;2022-08-04T02:29:33;10.50;;;3.97;;
22336;SDS011;14992;50.844;4.418;2022-08-04T02:32:09;12.98;;;4.47;;
22336;SDS011;14992;50.844;4.418;2022-08-04T02:34:43;12.25;;;4.30;;
22336;SDS011;14992;50.844;4.418;2022-08-04T02:37:16;9.68;;;4.10;;
22336;SDS011;14992;50.844;4.418;2022-08-04T02:39:47;10.60;;;3.88;;
22336;SDS011;14992;50.844;4.418;2022-08-04T02:42:19;14.43;;;4.63;;
22336;SDS011;14992;50.844;4.418;2022-08-04T02:44:49;10.73;;;4.20;;
22336;SDS011;14992;50.844;4.418;2022-08-04T02:47:20;13.05;;;4.07;;
22336;SDS011;14992;50.844;4.418;2022-08-04T02:50:08;11.30;;;3.80;;
22336;SDS011;14992;50.844;4.418;2022-08-04T02:52:54;10.35;;;3.70;;
22336;SDS011;14992;50.844;4.418;2022-08-04T02:55:25;11.77;;;3.75;;
22336;SDS011;14992;50.844;4.418;2022-08-04T02:57:56;11.80;;;4.20;;
22336;SDS011;14992;50.844;4.418;2022-08-04T03:00:25;16.45;;;4.03;;
22336;SDS011;14992;50.844;4.418;2022-08-04T03:02:58;13.02;;;4.40;;
22336;SDS011;14992;50.844;4.418;2022-08-04T03:05:42;12.80;;;4.28;;
22336;SDS011;14992;50.844;4.418;2022-08-04T03:08:29;14.93;;;4.95;;
22336;SDS011;14992;50.844;4.418;2022-08-04T03:14:24;17.90;;;5.35;;
22336;SDS011;14992;50.844;4.418;2022-08-04T03:17:15;15.75;;;6.15;;
22336;SDS011;14992;50.844;4.418;2022-08-04T03:23:53;13.43;;;6.22;;
22336;SDS011;14992;50.844;4.418;2022-08-04T03:26:42;13.07;;;6.18;;
22336;SDS011;14992;50.844;4.418;2022-08-04T03:32:39;16.77;;;5.82;;
22336;SDS011;14992;50.844;4.418;2022-08-04T03:41:47;11.68;;;5.97;;
22336;SDS011;14992;50.844;4.418;2022-08-04T03:51:16;11.38;;;4.97;;
22336;SDS011;14992;50.844;4.418;2022-08-04T03:54:21;12.57;;;5.55;;
22336;SDS011;14992;50.844;4.418;2022-08-04T03:57:18;13.05;;;5.32;;
22336;SDS011;14992;50.844;4.418;2022-08-04T04:00:05;12.30;;;4.68;;
22336;SDS011;14992;50.844;4.418;2022-08-04T04:05:47;14.40;;;5.18;;
22336;SDS011;14992;50.844;4.418;2022-08-04T04:11:53;11.45;;;4.10;;
22336;SDS011;14992;50.844;4.418;2022-08-04T04:14:44;11.68;;;4.63;;
22336;SDS011;14992;50.844;4.418;2022-08-04T04:17:32;9.48;;;4.00;;
22336;SDS011;14992;50.844;4.418;2022-08-04T04:20:38;8.77;;;3.80;;
22336;SDS011;14992;50.844;4.418;2022-08-04T04:23:38;10.15;;;3.53;;
22336;SDS011;14992;50.844;4.418;2022-08-04T04:26:37;11.18;;;3.03;;
22336;SDS011;14992;50.844;4.418;2022-08-04T04:29:23;11.10;;;3.53;;
22336;SDS011;14992;50.844;4.418;2022-08-04T04:32:09;10.00;;;3.00;;
22336;SDS011;14992;50.844;4.418;2022-08-04T04:34:51;7.32;;;3.10;;
22336;SDS011;14992;50.844;4.418;2022-08-04T04:37:40;11.20;;;3.42;;
22336;SDS011;14992;50.844;4.418;2022-08-04T04:40:24;13.68;;;4.55;;
22336;SDS011;14992;50.844;4.418;2022-08-04T04:43:08;12.75;;;5.28;;
22336;SDS011;14992;50.844;4.418;2022-08-04T04:45:48;14.00;;;5.05;;
22336;SDS011;14992;50.844;4.418;2022-08-04T04:48:25;11.85;;;4.22;;
22336;SDS011;14992;50.844;4.418;2022-08-04T04:51:05;43.10;;;14.82;;
22336;SDS011;14992;50.844;4.418;2022-08-04T04:53:41;12.48;;;3.83;;
22336;SDS011;14992;50.844;4.418;2022-08-04T04:56:16;14.82;;;5.88;;
22336;SDS011;14992;50.844;4.418;2022-08-04T04:58:51;12.30;;;3.88;;
22336;SDS011;14992;50.844;4.418;2022-08-04T05:01:27;13.20;;;3.35;;
22336;SDS011;14992;50.844;4.418;2022-08-04T05:04:41;19.80;;;6.65;;
22336;SDS011;14992;50.844;4.418;2022-08-04T05:07:37;33.28;;;15.55;;
22336;SDS011;14992;50.844;4.418;2022-08-04T05:10:51;14.10;;;5.53;;
22336;SDS011;14992;50.844;4.418;2022-08-04T05:13:35;18.67;;;4.80;;
22336;SDS011;14992;50.844;4.418;2022-08-04T05:16:31;10.80;;;3.40;;
22336;SDS011;14992;50.844;4.418;2022-08-04T05:19:07;9.93;;;4.05;;
22336;SDS011;14992;50.844;4.418;2022-08-04T05:21:47;12.43;;;4.37;;
22336;SDS011;14992;50.844;4.418;2022-08-04T05:24:19;15.35;;;5.50;;
22336;SDS011;14992;50.844;4.418;2022-08-04T05:26:51;15.00;;;5.63;;
22336;SDS011;14992;50.844;4.418;2022-08-04T05:29:24;18.10;;;5.93;;
22336;SDS011;14992;50.844;4.418;2022-08-04T05:32:00;18.00;;;5.93;;
22336;SDS011;14992;50.844;4.418;2022-08-04T05:34:34;16.58;;;5.40;;
22336;SDS011;14992;50.844;4.418;2022-08-04T05:37:09;14.23;;;5.13;;
22336;SDS011;14992;50.844;4.418;2022-08-04T05:39:44;16.70;;;5.72;;
22336;SDS011;14992;50.844;4.418;2022-08-04T05:44:48;17.00;;;4.70;;
22336;SDS011;14992;50.844;4.418;2022-08-04T05:47:21;14.80;;;5.05;;
22336;SDS011;14992;50.844;4.418;2022-08-04T05:49:50;18.20;;;4.97;;
22336;SDS011;14992;50.844;4.418;2022-08-04T05:52:27;12.38;;;4.20;;
22336;SDS011;14992;50.844;4.418;2022-08-04T05:54:57;13.57;;;4.70;;
22336;SDS011;14992;50.844;4.418;2022-08-04T05:57:27;18.38;;;4.28;;
22336;SDS011;14992;50.844;4.418;2022-08-04T05:59:57;16.48;;;4.55;;
22336;SDS011;14992;50.844;4.418;2022-08-04T06:02:49;17.60;;;4.18;;
22336;SDS011;14992;50.844;4.418;2022-08-04T06:05:19;14.88;;;4.57;;
22336;SDS011;14992;50.844;4.418;2022-08-04T06:07:49;13.85;;;5.20;;
22336;SDS011;14992;50.844;4.418;2022-08-04T06:10:38;15.82;;;4.22;;
22336;SDS011;14992;50.844;4.418;2022-08-04T06:13:09;12.90;;;4.28;;
22336;SDS011;14992;50.844;4.418;2022-08-04T06:15:59;14.95;;;3.70;;
22336;SDS011;14992;50.844;4.418;2022-08-04T06:18:30;16.95;;;3.95;;
22336;SDS011;14992;50.844;4.418;2022-08-04T06:21:21;11.30;;;4.03;;
22336;SDS011;14992;50.844;4.418;2022-08-04T06:23:53;14.50;;;3.92;;
22336;SDS011;14992;50.844;4.418;2022-08-04T06:26:31;11.63;;;3.75;;
22336;SDS011;14992;50.844;4.418;2022-08-04T06:29:02;12.10;;;3.95;;
22336;SDS011;14992;50.844;4.418;2022-08-04T06:31:36;10.00;;;4.00;;
22336;SDS011;14992;50.844;4.418;2022-08-04T06:34:34;12.40;;;2.88;;
22336;SDS011;14992;50.844;4.418;2022-08-04T06:37:02;16.42;;;4.18;;
22336;SDS011;14992;50.844;4.418;2022-08-04T06:39:33;11.93;;;3.33;;
22336;SDS011;14992;50.844;4.418;2022-08-04T06:42:03;14.48;;;3.47;;
22336;SDS011;14992;50.844;4.418;2022-08-04T06:44:50;8.07;;;2.97;;
22336;SDS011;14992;50.844;4.418;2022-08-04T06:47:21;15.85;;;3.78;;
22336;SDS011;14992;50.844;4.418;2022-08-04T06:49:52;20.90;;;3.78;;
22336;SDS011;14992;50.844;4.418;2022-08-04T06:52:43;11.80;;;3.45;;
22336;SDS011;14992;50.844;4.418;2022-08-04T06:55:12;14.13;;;3.58;;
22336;SDS011;14992;50.844;4.418;2022-08-04T06:57:40;14.38;;;3.70;;
22336;SDS011;14992;50.844;4.418;2022-08-04T07:00:12;10.98;;;3.50;;
22336;SDS011;14992;50.844;4.418;2022-08-04T07:02:43;14.77;;;3.90;;
22336;SDS011;14992;50.844;4.418;2022-08-04T07:05:16;12.70;;;3.72;;
22336;SDS011;14992;50.844;4.418;2022-08-04T07:07:45;16.10;;;4.20;;
22336;SDS011;14992;50.844;4.418;2022-08-04T07:10:24;14.43;;;4.15;;
22336;SDS011;14992;50.844;4.418;2022-08-04T07:12:54;10.07;;;3.83;;
22336;SDS011;14992;50.844;4.418;2022-08-04T07:15:23;12.27;;;4.07;;
22336;SDS011;14992;50.844;4.418;2022-08-04T07:17:53;14.57;;;3.60;;
22336;SDS011;14992;50.844;4.418;2022-08-04T07:23:02;11.48;;;3.60;;
22336;SDS011;14992;50.844;4.418;2022-08-04T07:25:32;20.13;;;3.65;;
22336;SDS011;14992;50.844;4.418;2022-08-04T07:28:22;14.38;;;3.80;;
22336;SDS011;14992;50.844;4.418;2022-08-04T07:30:53;12.63;;;3.58;;
22336;SDS011;14992;50.844;4.418;2022-08-04T07:33:23;11.90;;;3.13;;
22336;SDS011;14992;50.844;4.418;2022-08-04T07:35:53;16.15;;;3.78;;
22336;SDS011;14992;50.844;4.418;2022-08-04T07:38:37;11.32;;;3.58;;
22336;SDS011;14992;50.844;4.418;2022-08-04T07:41:19;14.00;;;3.67;;
22336;SDS011;14992;50.844;4.418;2022-08-04T07:44:08;14.85;;;3.50;;
22336;SDS011;14992;50.844;4.418;2022-08-04T07:46:37;14.57;;;3.60;;
22336;SDS011;14992;50.844;4.418;2022-08-04T07:49:06;11.40;;;3.15;;
22336;SDS011;14992;50.844;4.418;2022-08-04T07:51:36;11.35;;;3.88;;
22336;SDS011;14992;50.844;4.418;2022-08-04T07:54:06;9.85;;;3.20;;
22336;SDS011;14992;50.844;4.418;2022-08-04T07:56:37;10.32;;;3.00;;
22336;SDS011;14992;50.844;4.418;2022-08-04T07:59:06;14.10;;;3.47;;
22336;SDS011;14992;50.844;4.418;2022-08-04T08:01:35;14.88;;;3.30;;
22336;SDS011;14992;50.844;4.418;2022-08-04T08:04:05;12.25;;;3.55;;
22336;SDS011;14992;50.844;4.418;2022-08-04T08:06:34;12.00;;;3.63;;
22336;SDS011;14992;50.844;4.418;2022-08-04T08:09:09;12.10;;;3.75;;
22336;SDS011;14992;50.844;4.418;2022-08-04T08:11:40;16.58;;;4.05;;
22336;SDS011;14992;50.844;4.418;2022-08-04T08:14:30;10.65;;;3.90;;
22336;SDS011;14992;50.844;4.418;2022-08-04T08:17:00;7.55;;;3.67;;
22336;SDS011;14992;50.844;4.418;2022-08-04T08:19:29;18.63;;;5.18;;
22336;SDS011;14992;50.844;4.418;2022-08-04T08:22:01;12.65;;;4.75;;
22336;SDS011;14992;50.844;4.418;2022-08-04T08:24:32;16.90;;;4.90;;
22336;SDS011;14992;50.844;4.418;2022-08-04T08:27:03;13.07;;;4.88;;
22336;SDS011;14992;50.844;4.418;2022-08-04T08:29:33;16.15;;;4.68;;
22336;SDS011;14992;50.844;4.418;2022-08-04T08:32:02;18.58;;;5.28;;
22336;SDS011;14992;50.844;4.418;2022-08-04T08:34:35;11.80;;;4.73;;
22336;SDS011;14992;50.844;4.418;2022-08-04T08:37:08;14.82;;;4.97;;
22336;SDS011;14992;50.844;4.418;2022-08-04T08:39:44;13.73;;;5.13;;
22336;SDS011;14992;50.844;4.418;2022-08-04T08:42:31;13.68;;;4.90;;
22336;SDS011;14992;50.844;4.418;2022-08-04T08:48:10;14.40;;;5.05;;
22336;SDS011;14992;50.844;4.418;2022-08-04T08:51:19;13.75;;;5.88;;
22336;SDS011;14992;50.844;4.418;2022-08-04T08:54:08;22.63;;;5.47;;
22336;SDS011;14992;50.844;4.418;2022-08-04T08:56:59;21.75;;;5.93;;
22336;SDS011;14992;50.844;4.418;2022-08-04T08:59:47;18.55;;;5.70;;
22336;SDS011;14992;50.844;4.418;2022-08-04T09:02:32;17.08;;;5.93;;
22336;SDS011;14992;50.844;4.418;2022-08-04T09:05:14;16.83;;;6.45;;
22336;SDS011;14992;50.844;4.418;2022-08-04T09:07:59;14.25;;;6.68;;
22336;SDS011;14992;50.844;4.418;2022-08-04T09:10:38;21.13;;;7.82;;
22336;SDS011;14992;50.844;4.418;2022-08-04T09:13:12;17.73;;;8.25;;
22336;SDS011;14992;50.844;4.418;2022-08-04T09:15:48;17.88;;;8.40;;
22336;SDS011;14992;50.844;4.418;2022-08-04T09:18:24;22.00;;;9.65;;
22336;SDS011;14992;50.844;4.418;2022-08-04T09:20:58;15.93;;;9.65;;
22336;SDS011;14992;50.844;4.418;2022-08-04T09:23:33;20.63;;;9.95;;
22336;SDS011;14992;50.844;4.418;2022-08-04T09:26:19;22.90;;;11.65;;
22336;SDS011;14992;50.844;4.418;2022-08-04T09:29:05;27.00;;;13.55;;
22336;SDS011;14992;50.844;4.418;2022-08-04T09:31:42;29.48;;;13.80;;
22336;SDS011;14992;50.844;4.418;2022-08-04T09:34:35;26.30;;;13.52;;
22336;SDS011;14992;50.844;4.418;2022-08-04T09:37:13;29.55;;;15.25;;
22336;SDS011;14992;50.844;4.418;2022-08-04T09:39:48;32.40;;;15.05;;
22336;SDS011;14992;50.844;4.418;2022-08-04T09:42:32;28.70;;;16.77;;
22336;SDS011;14992;50.844;4.418;2022-08-04T09:45:09;30.33;;;16.13;;
22336;SDS011;14992;50.844;4.418;2022-08-04T09:47:53;27.63;;;16.13;;
22336;SDS011;14992;50.844;4.418;2022-08-04T09:50:28;32.35;;;16.63;;
22336;SDS011;14992;50.844;4.418;2022-08-04T09:53:02;29.50;;;16.67;;
22336;SDS011;14992;50.844;4.418;2022-08-04T09:55:41;38.72;;;19.33;;
22336;SDS011;14992;50.844;4.418;2022-08-04T09:58:26;37.55;;;19.00;;
22336;SDS011;14992;50.844;4.418;2022-08-04T10:01:07;32.60;;;19.07;;
22336;SDS011;14992;50.844;4.418;2022-08-04T10:03:37;31.05;;;18.73;;
22336;SDS011;14992;50.844;4.418;2022-08-04T10:06:13;34.90;;;19.90;;
22336;SDS011;14992;50.844;4.418;2022-08-04T10:09:07;36.80;;;21.27;;
22336;SDS011;14992;50.844;4.418;2022-08-04T10:11:50;42.42;;;21.10;;
22336;SDS011;14992;50.844;4.418;2022-08-04T10:14:34;38.10;;;21.52;;
22336;SDS011;14992;50.844;4.418;2022-08-04T10:17:18;38.33;;;20.15;;
22336;SDS011;14992;50.844;4.418;2022-08-04T10:19:59;34.65;;;20.83;;
22336;SDS011;14992;50.844;4.418;2022-08-04T10:22:36;33.22;;;20.67;;
22336;SDS011;14992;50.844;4.418;2022-08-04T10:25:29;40.50;;;22.83;;
22336;SDS011;14992;50.844;4.418;2022-08-04T10:28:29;44.00;;;22.92;;
22336;SDS011;14992;50.844;4.418;2022-08-04T10:31:02;43.90;;;23.77;;
22336;SDS011;14992;50.844;4.418;2022-08-04T10:33:37;43.80;;;24.33;;
22336;SDS011;14992;50.844;4.418;2022-08-04T10:36:10;38.20;;;23.05;;
22336;SDS011;14992;50.844;4.418;2022-08-04T10:38:45;38.10;;;21.63;;
22336;SDS011;14992;50.844;4.418;2022-08-04T10:41:24;43.22;;;24.67;;
22336;SDS011;14992;50.844;4.418;2022-08-04T10:44:00;40.05;;;24.85;;
22336;SDS011;14992;50.844;4.418;2022-08-04T10:46:44;41.15;;;24.70;;
22336;SDS011;14992;50.844;4.418;2022-08-04T10:49:20;34.35;;;23.00;;
22336;SDS011;14992;50.844;4.418;2022-08-04T10:51:50;36.60;;;24.02;;
22336;SDS011;14992;50.844;4.418;2022-08-04T10:54:26;42.15;;;24.27;;
22336;SDS011;14992;50.844;4.418;2022-08-04T10:57:00;34.63;;;22.30;;
22336;SDS011;14992;50.844;4.418;2022-08-04T10:59:34;34.78;;;20.13;;
22336;SDS011;14992;50.844;4.418;2022-08-04T11:02:11;30.05;;;20.33;;
22336;SDS011;14992;50.844;4.418;2022-08-04T11:04:55;26.27;;;16.60;;
22336;SDS011;14992;50.844;4.418;2022-08-04T11:07:33;24.98;;;16.77;;
22336;SDS011;14992;50.844;4.418;2022-08-04T11:10:05;29.60;;;18.40;;
22336;SDS011;14992;50.844;4.418;2022-08-04T11:12:34;30.02;;;17.40;;
22336;SDS011;14992;50.844;4.418;2022-08-04T11:15:05;26.88;;;14.98;;
22336;SDS011;14992;50.844;4.418;2022-08-04T11:17:40;25.83;;;15.77;;
22336;SDS011;14992;50.844;4.418;2022-08-04T11:20:14;25.25;;;17.35;;
22336;SDS011;14992;50.844;4.418;2022-08-04T11:23:05;28.98;;;16.33;;
22336;SDS011;14992;50.844;4.418;2022-08-04T11:25:39;22.40;;;13.82;;
22336;SDS011;14992;50.844;4.418;2022-08-04T11:28:21;24.87;;;14.80;;
22336;SDS011;14992;50.844;4.418;2022-08-04T11:30:58;24.67;;;14.27;;
22336;SDS011;14992;50.844;4.418;2022-08-04T11:33:35;28.05;;;18.50;;
22336;SDS011;14992;50.844;4.418;2022-08-04T11:36:13;30.52;;;17.95;;
22336;SDS011;14992;50.844;4.418;2022-08-04T11:38:48;26.38;;;17.83;;
22336;SDS011;14992;50.844;4.418;2022-08-04T11:41:29;27.58;;;17.73;;
22336;SDS011;14992;50.844;4.418;2022-08-04T11:44:04;25.25;;;16.52;;
22336;SDS011;14992;50.844;4.418;2022-08-04T11:46:41;26.65;;;14.70;;
22336;SDS011;14992;50.844;4.418;2022-08-04T11:49:15;28.25;;;14.88;;
22336;SDS011;14992;50.844;4.418;2022-08-04T11:51:52;21.58;;;13.63;;
22336;SDS011;14992;50.844;4.418;2022-08-04T11:54:23;24.60;;;15.82;;
22336;SDS011;14992;50.844;4.418;2022-08-04T11:56:53;24.23;;;15.07;;
22336;SDS011;14992;50.844;4.418;2022-08-04T11:59:22;20.10;;;11.55;;
22336;SDS011;14992;50.844;4.418;2022-08-04T12:01:59;18.35;;;10.88;;
22336;SDS011;14992;50.844;4.418;2022-08-04T12:04:43;19.90;;;11.32;;
22336;SDS011;14992;50.844;4.418;2022-08-04T12:07:19;21.88;;;13.15;;
22336;SDS011;14992;50.844;4.418;2022-08-04T12:10:13;20.75;;;12.80;;
22336;SDS011;14992;50.844;4.418;2022-08-04T12:13:08;20.40;;;12.25;;
22336;SDS011;14992;50.844;4.418;2022-08-04T12:15:46;21.58;;;13.00;;
22336;SDS011;14992;50.844;4.418;2022-08-04T12:18:23;21.90;;;12.95;;
22336;SDS011;14992;50.844;4.418;2022-08-04T12:20:59;19.25;;;11.00;;
22336;SDS011;14992;50.844;4.418;2022-08-04T12:23:34;21.70;;;12.20;;
22336;SDS011;14992;50.844;4.418;2022-08-04T12:26:06;21.33;;;14.73;;
22336;SDS011;14992;50.844;4.418;2022-08-04T12:28:37;18.75;;;9.25;;
22336;SDS011;14992;50.844;4.418;2022-08-04T12:31:28;20.40;;;10.10;;
22336;SDS011;14992;50.844;4.418;2022-08-04T12:34:05;14.38;;;9.05;;
22336;SDS011;14992;50.844;4.418;2022-08-04T12:36:38;15.80;;;9.35;;
22336;SDS011;14992;50.844;4.418;2022-08-04T12:39:11;14.43;;;7.97;;
22336;SDS011;14992;50.844;4.418;2022-08-04T12:41:59;15.00;;;7.78;;
22336;SDS011;14992;50.844;4.418;2022-08-04T12:44:30;15.90;;;7.70;;
22336;SDS011;14992;50.844;4.418;2022-08-04T12:47:05;14.15;;;8.73;;
22336;SDS011;14992;50.844;4.418;2022-08-04T12:49:55;13.32;;;7.18;;
22336;SDS011;14992;50.844;4.418;2022-08-04T12:52:32;15.15;;;8.98;;
22336;SDS011;14992;50.844;4.418;2022-08-04T12:55:28;16.48;;;8.02;;
22336;SDS011;14992;50.844;4.418;2022-08-04T12:57:59;13.82;;;8.20;;
22336;SDS011;14992;50.844;4.418;2022-08-04T13:00:32;15.73;;;8.60;;
22336;SDS011;14992;50.844;4.418;2022-08-04T13:03:08;16.73;;;9.52;;
22336;SDS011;14992;50.844;4.418;2022-08-04T13:05:39;13.70;;;8.45;;
22336;SDS011;14992;50.844;4.418;2022-08-04T13:08:10;15.40;;;9.43;;
22336;SDS011;14992;50.844;4.418;2022-08-04T13:10:42;16.52;;;8.65;;
22336;SDS011;14992;50.844;4.418;2022-08-04T13:13:14;16.58;;;9.40;;
22336;SDS011;14992;50.844;4.418;2022-08-04T13:15:54;20.70;;;7.78;;
22336;SDS011;14992;50.844;4.418;2022-08-04T13:18:25;15.90;;;8.88;;
22336;SDS011;14992;50.844;4.418;2022-08-04T13:21:09;18.50;;;9.88;;
22336;SDS011;14992;50.844;4.418;2022-08-04T13:23:48;15.27;;;9.40;;
22336;SDS011;14992;50.844;4.418;2022-08-04T13:26:48;15.80;;;9.52;;
22336;SDS011;14992;50.844;4.418;2022-08-04T13:29:22;17.33;;;9.48;;
22336;SDS011;14992;50.844;4.418;2022-08-04T13:32:15;13.07;;;5.80;;
22336;SDS011;14992;50.844;4.418;2022-08-04T13:34:46;15.98;;;6.07;;
22336;SDS011;14992;50.844;4.418;2022-08-04T13:37:21;12.73;;;5.72;;
22336;SDS011;14992;50.844;4.418;2022-08-04T13:39:55;10.48;;;4.75;;
22336;SDS011;14992;50.844;4.418;2022-08-04T13:42:26;13.13;;;5.37;;
22336;SDS011;14992;50.844;4.418;2022-08-04T13:44:56;11.18;;;4.47;;
22336;SDS011;14992;50.844;4.418;2022-08-04T13:47:27;9.38;;;5.20;;
22336;SDS011;14992;50.844;4.418;2022-08-04T13:50:05;9.35;;;5.47;;
22336;SDS011;14992;50.844;4.418;2022-08-04T13:52:41;11.55;;;5.00;;
22336;SDS011;14992;50.844;4.418;2022-08-04T13:55:19;12.73;;;5.85;;
22336;SDS011;14992;50.844;4.418;2022-08-04T13:57:52;11.32;;;4.70;;
22336;SDS011;14992;50.844;4.418;2022-08-04T14:00:24;10.85;;;6.68;;
22336;SDS011;14992;50.844;4.418;2022-08-04T14:03:00;11.45;;;6.43;;
22336;SDS011;14992;50.844;4.418;2022-08-04T14:08:44;11.68;;;5.00;;
22336;SDS011;14992;50.844;4.418;2022-08-04T14:11:17;20.55;;;9.77;;
22336;SDS011;14992;50.844;4.418;2022-08-04T14:14:17;10.95;;;4.88;;
22336;SDS011;14992;50.844;4.418;2022-08-04T14:16:54;9.90;;;4.97;;
22336;SDS011;14992;50.844;4.418;2022-08-04T14:19:28;11.20;;;4.50;;
22336;SDS011;14992;50.844;4.418;2022-08-04T14:22:26;11.43;;;4.22;;
22336;SDS011;14992;50.844;4.418;2022-08-04T14:24:56;10.15;;;4.35;;
22336;SDS011;14992;50.844;4.418;2022-08-04T14:27:28;16.83;;;6.20;;
22336;SDS011;14992;50.844;4.418;2022-08-04T14:29:57;12.02;;;7.28;;
22336;SDS011;14992;50.844;4.418;2022-08-04T14:32:26;9.15;;;4.55;;
22336;SDS011;14992;50.844;4.418;2022-08-04T14:34:54;11.63;;;6.07;;
22336;SDS011;14992;50.844;4.418;2022-08-04T14:37:23;9.95;;;4.10;;
22336;SDS011;14992;50.844;4.418;2022-08-04T14:39:52;17.63;;;9.55;;
22336;SDS011;14992;50.844;4.418;2022-08-04T14:42:43;14.43;;;8.10;;
22336;SDS011;14992;50.844;4.418;2022-08-04T14:45:29;10.82;;;4.65;;
22336;SDS011;14992;50.844;4.418;2022-08-04T14:47:59;7.38;;;3.30;;
22336;SDS011;14992;50.844;4.418;2022-08-04T14:50:33;6.18;;;3.47;;
22336;SDS011;14992;50.844;4.418;2022-08-04T14:53:05;10.15;;;4.05;;
22336;SDS011;14992;50.844;4.418;2022-08-04T14:55:35;8.50;;;4.38;;
22336;SDS011;14992;50.844;4.418;2022-08-04T14:58:06;8.85;;;4.15;;
22336;SDS011;14992;50.844;4.418;2022-08-04T15:01:03;8.13;;;3.90;;
22336;SDS011;14992;50.844;4.418;2022-08-04T15:03:38;9.05;;;3.60;;
22336;SDS011;14992;50.844;4.418;2022-08-04T15:06:19;13.00;;;4.93;;
22336;SDS011;14992;50.844;4.418;2022-08-04T15:08:49;14.20;;;4.50;;
22336;SDS011;14992;50.844;4.418;2022-08-04T15:11:19;13.02;;;4.43;;
22336;SDS011;14992;50.844;4.418;2022-08-04T15:13:51;9.38;;;3.58;;
22336;SDS011;14992;50.844;4.418;2022-08-04T15:16:20;9.85;;;4.85;;
22336;SDS011;14992;50.844;4.418;2022-08-04T15:18:50;10.57;;;5.00;;
22336;SDS011;14992;50.844;4.418;2022-08-04T15:21:22;12.75;;;5.00;;
22336;SDS011;14992;50.844;4.418;2022-08-04T15:23:54;12.63;;;5.13;;
22336;SDS011;14992;50.844;4.418;2022-08-04T15:26:26;8.73;;;3.95;;
22336;SDS011;14992;50.844;4.418;2022-08-04T15:29:01;9.60;;;4.75;;
22336;SDS011;14992;50.844;4.418;2022-08-04T15:31:42;8.93;;;4.40;;
22336;SDS011;14992;50.844;4.418;2022-08-04T15:34:42;14.18;;;4.68;;
22336;SDS011;14992;50.844;4.418;2022-08-04T15:37:12;13.38;;;4.45;;
22336;SDS011;14992;50.844;4.418;2022-08-04T15:39:47;12.85;;;4.38;;
22336;SDS011;14992;50.844;4.418;2022-08-04T15:42:20;13.65;;;5.47;;
22336;SDS011;14992;50.844;4.418;2022-08-04T15:45:11;10.43;;;4.32;;
22336;SDS011;14992;50.844;4.418;2022-08-04T15:51:03;9.60;;;4.00;;
22336;SDS011;14992;50.844;4.418;2022-08-04T15:56:54;9.70;;;4.10;;
22336;SDS011;14992;50.844;4.418;2022-08-04T16:02:39;10.85;;;4.10;;
22336;SDS011;14992;50.844;4.418;2022-08-04T16:08:00;8.77;;;4.80;;
22336;SDS011;14992;50.844;4.418;2022-08-04T16:10:40;11.38;;;4.50;;
22336;SDS011;14992;50.844;4.418;2022-08-04T16:13:17;10.77;;;4.47;;
22336;SDS011;14992;50.844;4.418;2022-08-04T16:15:53;9.95;;;4.65;;
22336;SDS011;14992;50.844;4.418;2022-08-04T16:18:39;9.57;;;3.85;;
22336;SDS011;14992;50.844;4.418;2022-08-04T16:21:20;9.88;;;3.80;;
22336;SDS011;14992;50.844;4.418;2022-08-04T16:23:54;7.95;;;3.20;;
22336;SDS011;14992;50.844;4.418;2022-08-04T16:26:43;9.88;;;3.00;;
22336;SDS011;14992;50.844;4.418;2022-08-04T16:29:35;7.05;;;2.83;;
22336;SDS011;14992;50.844;4.418;2022-08-04T16:32:05;10.07;;;3.25;;
22336;SDS011;14992;50.844;4.418;2022-08-04T16:34:40;9.27;;;2.90;;
22336;SDS011;14992;50.844;4.418;2022-08-04T16:39:50;10.73;;;3.60;;